sensor_id;sensor_type;location;lat;lon;timestamp;P1;durP1;ratioP1;P2;durP2;ratioP2
42802;SDS011;28447;48.682;9.022;2024-03-02T05:00:53;22.03;;;12.07;;
42802;SDS011;28447;48.682;9.022;2024-03-02T05:03:19;23.70;;;12.50;;
42802;SDS011;28447;48.682;9.022;2024-03-02T05:05:45;28.30;;;14.37;;
42802;SDS011;28447;48.682;9.022;2024-03-02T05:08:11;22.83;;;12.60;;
42802;SDS011;28447;48.682;9.022;2024-03-02T05:10:37;25.50;;;13.17;;
42802;SDS011;28447;48.682;9.022;2024-03-02T05:13:03;26.90;;;12.50;;
42802;SDS011;28447;48.682;9.022;2024-03-02T05:15:29;25.10;;;13.30;;
42802;SDS011;28447;48.682;9.022;2024-03-02T05:17:55;24.50;;;12.80;;
42802;SDS011;28447;48.682;9.022;2024-03-02T05:20:22;27.23;;;13.50;;
42802;SDS011;28447;48.682;9.022;2024-03-02T05:22:48;27.70;;;13.67;;
42802;SDS011;28447;48.682;9.022;2024-03-02T05:25:14;26.60;;;12.37;;
42802;SDS011;28447;48.682;9.022;2024-03-02T05:27:40;23.23;;;11.97;;
42802;SDS011;28447;48.682;9.022;2024-03-02T05:30:07;25.27;;;12.30;;
42802;SDS011;28447;48.682;9.022;2024-03-02T05:32:33;25.47;;;12.60;;
42802;SDS011;28447;48.682;9.022;2024-03-02T05:35:00;30.60;;;14.00;;
42802;SDS011;28447;48.682;9.022;2024-03-02T05:37:25;24.93;;;13.07;;
42802;SDS011;28447;48.682;9.022;2024-03-02T05:39:51;23.83;;;12.47;;
42802;SDS011;28447;48.682;9.022;2024-03-02T05:42:18;25.53;;;12.33;;
42802;SDS011;28447;48.682;9.022;2024-03-02T05:44:44;24.37;;;12.73;;
42802;SDS011;28447;48.682;9.022;2024-03-02T05:47:10;24.40;;;12.33;;
42802;SDS011;28447;48.682;9.022;2024-03-02T05:49:36;24.10;;;12.10;;
42802;SDS011;28447;48.682;9.022;2024-03-02T05:52:02;23.03;;;12.03;;
42802;SDS011;28447;48.682;9.022;2024-03-02T05:54:28;20.53;;;12.60;;
42802;SDS011;28447;48.682;9.022;2024-03-02T05:56:54;24.30;;;12.40;;
42802;SDS011;28447;48.682;9.022;2024-03-02T05:59:20;29.33;;;13.77;;
42802;SDS011;28447;48.682;9.022;2024-03-02T06:01:47;23.10;;;12.73;;
42802;SDS011;28447;48.682;9.022;2024-03-02T06:04:17;23.73;;;11.50;;
42802;SDS011;28447;48.682;9.022;2024-03-02T06:06:43;26.07;;;13.57;;
42802;SDS011;28447;48.682;9.022;2024-03-02T06:09:09;28.40;;;13.73;;
42802;SDS011;28447;48.682;9.022;2024-03-02T06:11:40;28.60;;;14.83;;
42802;SDS011;28447;48.682;9.022;2024-03-02T06:14:07;31.60;;;15.30;;
42802;SDS011;28447;48.682;9.022;2024-03-02T06:16:34;29.80;;;15.10;;
42802;SDS011;28447;48.682;9.022;2024-03-02T06:19:00;29.47;;;15.13;;
42802;SDS011;28447;48.682;9.022;2024-03-02T06:21:27;30.80;;;14.70;;
42802;SDS011;28447;48.682;9.022;2024-03-02T06:23:53;27.37;;;14.47;;
42802;SDS011;28447;48.682;9.022;2024-03-02T06:26:19;29.13;;;15.80;;
42802;SDS011;28447;48.682;9.022;2024-03-02T06:28:46;31.10;;;15.27;;
42802;SDS011;28447;48.682;9.022;2024-03-02T06:31:12;24.67;;;13.73;;
42802;SDS011;28447;48.682;9.022;2024-03-02T06:33:38;24.40;;;12.77;;
42802;SDS011;28447;48.682;9.022;2024-03-02T06:36:05;24.97;;;12.40;;
42802;SDS011;28447;48.682;9.022;2024-03-02T06:38:33;26.23;;;13.53;;
42802;SDS011;28447;48.682;9.022;2024-03-02T06:40:59;26.77;;;14.23;;
42802;SDS011;28447;48.682;9.022;2024-03-02T06:43:25;21.27;;;13.23;;
42802;SDS011;28447;48.682;9.022;2024-03-02T06:45:51;24.23;;;13.63;;
42802;SDS011;28447;48.682;9.022;2024-03-02T06:48:18;26.13;;;13.37;;
42802;SDS011;28447;48.682;9.022;2024-03-02T06:50:48;24.20;;;12.93;;
42802;SDS011;28447;48.682;9.022;2024-03-02T06:53:14;25.50;;;12.03;;
42802;SDS011;28447;48.682;9.022;2024-03-02T06:55:44;28.47;;;14.80;;
42802;SDS011;28447;48.682;9.022;2024-03-02T06:58:11;24.33;;;13.00;;
42802;SDS011;28447;48.682;9.022;2024-03-02T07:00:37;23.73;;;13.40;;
42802;SDS011;28447;48.682;9.022;2024-03-02T07:03:03;26.87;;;13.47;;
42802;SDS011;28447;48.682;9.022;2024-03-02T07:05:29;21.70;;;12.97;;
42802;SDS011;28447;48.682;9.022;2024-03-02T07:07:55;23.97;;;13.93;;
42802;SDS011;28447;48.682;9.022;2024-03-02T07:10:21;24.73;;;13.87;;
42802;SDS011;28447;48.682;9.022;2024-03-02T07:12:47;23.00;;;14.17;;
42802;SDS011;28447;48.682;9.022;2024-03-02T07:15:13;25.60;;;14.00;;
42802;SDS011;28447;48.682;9.022;2024-03-02T07:17:51;25.00;;;13.77;;
42802;SDS011;28447;48.682;9.022;2024-03-02T07:20:17;26.67;;;13.70;;
42802;SDS011;28447;48.682;9.022;2024-03-02T07:22:44;22.67;;;14.23;;
42802;SDS011;28447;48.682;9.022;2024-03-02T07:25:10;26.67;;;14.47;;
42802;SDS011;28447;48.682;9.022;2024-03-02T07:27:36;23.13;;;14.40;;
42802;SDS011;28447;48.682;9.022;2024-03-02T07:30:02;22.90;;;13.73;;
42802;SDS011;28447;48.682;9.022;2024-03-02T07:32:28;27.13;;;14.37;;
42802;SDS011;28447;48.682;9.022;2024-03-02T07:34:54;23.47;;;12.57;;
42802;SDS011;28447;48.682;9.022;2024-03-02T07:37:21;21.47;;;12.87;;
42802;SDS011;28447;48.682;9.022;2024-03-02T07:39:47;20.70;;;12.30;;
42802;SDS011;28447;48.682;9.022;2024-03-02T07:42:13;19.13;;;12.60;;
42802;SDS011;28447;48.682;9.022;2024-03-02T07:44:39;25.30;;;12.80;;
42802;SDS011;28447;48.682;9.022;2024-03-02T07:47:05;21.20;;;12.30;;
42802;SDS011;28447;48.682;9.022;2024-03-02T07:49:32;21.50;;;12.27;;
42802;SDS011;28447;48.682;9.022;2024-03-02T07:51:59;20.23;;;12.83;;
42802;SDS011;28447;48.682;9.022;2024-03-02T07:54:25;19.67;;;11.43;;
42802;SDS011;28447;48.682;9.022;2024-03-02T07:56:51;20.60;;;12.07;;
42802;SDS011;28447;48.682;9.022;2024-03-02T07:59:17;20.90;;;12.20;;
42802;SDS011;28447;48.682;9.022;2024-03-02T08:01:43;21.37;;;11.13;;
42802;SDS011;28447;48.682;9.022;2024-03-02T08:04:09;17.87;;;11.03;;
42802;SDS011;28447;48.682;9.022;2024-03-02T08:06:35;18.00;;;11.03;;
42802;SDS011;28447;48.682;9.022;2024-03-02T08:09:01;19.93;;;12.73;;
42802;SDS011;28447;48.682;9.022;2024-03-02T08:11:34;19.83;;;12.23;;
42802;SDS011;28447;48.682;9.022;2024-03-02T08:14:00;21.50;;;12.93;;
42802;SDS011;28447;48.682;9.022;2024-03-02T08:16:26;21.27;;;11.60;;
42802;SDS011;28447;48.682;9.022;2024-03-02T08:18:52;19.83;;;11.60;;
42802;SDS011;28447;48.682;9.022;2024-03-02T08:21:18;16.03;;;9.93;;
42802;SDS011;28447;48.682;9.022;2024-03-02T08:23:44;15.10;;;11.30;;
42802;SDS011;28447;48.682;9.022;2024-03-02T08:26:11;16.77;;;9.97;;
42802;SDS011;28447;48.682;9.022;2024-03-02T08:28:37;14.33;;;9.37;;
42802;SDS011;28447;48.682;9.022;2024-03-02T08:31:05;14.03;;;9.50;;
42802;SDS011;28447;48.682;9.022;2024-03-02T08:33:31;14.10;;;8.93;;
42802;SDS011;28447;48.682;9.022;2024-03-02T08:35:58;11.80;;;8.40;;
42802;SDS011;28447;48.682;9.022;2024-03-02T08:38:24;12.37;;;8.63;;
42802;SDS011;28447;48.682;9.022;2024-03-02T08:40:50;11.47;;;7.67;;
42802;SDS011;28447;48.682;9.022;2024-03-02T08:43:16;9.97;;;7.40;;
42802;SDS011;28447;48.682;9.022;2024-03-02T08:45:42;11.53;;;7.83;;
42802;SDS011;28447;48.682;9.022;2024-03-02T08:48:08;9.37;;;7.30;;
42802;SDS011;28447;48.682;9.022;2024-03-02T08:50:35;12.13;;;7.90;;
42802;SDS011;28447;48.682;9.022;2024-03-02T08:53:01;10.33;;;7.10;;
42802;SDS011;28447;48.682;9.022;2024-03-02T08:55:27;9.97;;;7.17;;
42802;SDS011;28447;48.682;9.022;2024-03-02T08:57:53;12.03;;;7.40;;
42802;SDS011;28447;48.682;9.022;2024-03-02T09:00:19;9.20;;;6.77;;
42802;SDS011;28447;48.682;9.022;2024-03-02T09:02:46;9.90;;;6.90;;
42802;SDS011;28447;48.682;9.022;2024-03-02T09:05:12;11.17;;;6.97;;
42802;SDS011;28447;48.682;9.022;2024-03-02T09:07:38;10.87;;;7.70;;
42802;SDS011;28447;48.682;9.022;2024-03-02T09:10:04;11.23;;;7.03;;
42802;SDS011;28447;48.682;9.022;2024-03-02T09:12:31;7.70;;;6.07;;
42802;SDS011;28447;48.682;9.022;2024-03-02T09:14:57;8.90;;;6.50;;
42802;SDS011;28447;48.682;9.022;2024-03-02T09:17:23;9.17;;;7.00;;
42802;SDS011;28447;48.682;9.022;2024-03-02T09:19:49;10.00;;;7.37;;
42802;SDS011;28447;48.682;9.022;2024-03-02T09:22:17;9.43;;;6.20;;
42802;SDS011;28447;48.682;9.022;2024-03-02T09:24:43;9.20;;;6.40;;
42802;SDS011;28447;48.682;9.022;2024-03-02T09:27:10;7.20;;;5.67;;
42802;SDS011;28447;48.682;9.022;2024-03-02T09:29:36;8.93;;;6.13;;
42802;SDS011;28447;48.682;9.022;2024-03-02T09:32:02;7.47;;;6.30;;
42802;SDS011;28447;48.682;9.022;2024-03-02T09:34:29;6.90;;;5.93;;
42802;SDS011;28447;48.682;9.022;2024-03-02T09:36:54;7.00;;;6.27;;
42802;SDS011;28447;48.682;9.022;2024-03-02T09:39:20;7.23;;;6.53;;
42802;SDS011;28447;48.682;9.022;2024-03-02T09:41:47;6.63;;;5.93;;
42802;SDS011;28447;48.682;9.022;2024-03-02T09:44:13;6.33;;;5.70;;
42802;SDS011;28447;48.682;9.022;2024-03-02T09:46:40;6.90;;;6.00;;
42802;SDS011;28447;48.682;9.022;2024-03-02T09:49:08;6.30;;;5.67;;
42802;SDS011;28447;48.682;9.022;2024-03-02T09:51:34;7.30;;;5.70;;
42802;SDS011;28447;48.682;9.022;2024-03-02T09:54:01;5.73;;;5.23;;
42802;SDS011;28447;48.682;9.022;2024-03-02T09:56:27;7.47;;;6.13;;
42802;SDS011;28447;48.682;9.022;2024-03-02T09:58:53;7.00;;;6.03;;
42802;SDS011;28447;48.682;9.022;2024-03-02T10:01:19;6.20;;;5.10;;
42802;SDS011;28447;48.682;9.022;2024-03-02T10:03:45;5.37;;;4.87;;
42802;SDS011;28447;48.682;9.022;2024-03-02T10:08:47;4.60;;;4.20;;
42802;SDS011;28447;48.682;9.022;2024-03-02T10:14:03;5.27;;;4.77;;
42802;SDS011;28447;48.682;9.022;2024-03-02T10:16:33;4.60;;;4.20;;
42802;SDS011;28447;48.682;9.022;2024-03-02T10:19:01;4.80;;;4.40;;
42802;SDS011;28447;48.682;9.022;2024-03-02T10:21:40;5.70;;;3.87;;
42802;SDS011;28447;48.682;9.022;2024-03-02T10:24:07;4.23;;;3.83;;
42802;SDS011;28447;48.682;9.022;2024-03-02T10:26:33;7.57;;;5.43;;
42802;SDS011;28447;48.682;9.022;2024-03-02T10:28:59;14.93;;;8.60;;
42802;SDS011;28447;48.682;9.022;2024-03-02T10:31:25;4.83;;;4.27;;
42802;SDS011;28447;48.682;9.022;2024-03-02T10:33:56;3.83;;;3.53;;
42802;SDS011;28447;48.682;9.022;2024-03-02T10:36:23;6.60;;;3.67;;
42802;SDS011;28447;48.682;9.022;2024-03-02T10:38:51;4.37;;;3.97;;
42802;SDS011;28447;48.682;9.022;2024-03-02T10:41:22;7.60;;;6.90;;
42802;SDS011;28447;48.682;9.022;2024-03-02T10:43:49;4.80;;;4.10;;
42802;SDS011;28447;48.682;9.022;2024-03-02T10:46:16;4.83;;;4.40;;
42802;SDS011;28447;48.682;9.022;2024-03-02T10:48:45;4.13;;;3.83;;
42802;SDS011;28447;48.682;9.022;2024-03-02T10:51:12;4.33;;;4.03;;
42802;SDS011;28447;48.682;9.022;2024-03-02T10:53:38;4.30;;;4.00;;
42802;SDS011;28447;48.682;9.022;2024-03-02T10:56:04;3.90;;;3.70;;
42802;SDS011;28447;48.682;9.022;2024-03-02T10:58:33;4.27;;;3.97;;
42802;SDS011;28447;48.682;9.022;2024-03-02T11:01:00;3.63;;;3.43;;
42802;SDS011;28447;48.682;9.022;2024-03-02T11:03:27;4.23;;;3.60;;
42802;SDS011;28447;48.682;9.022;2024-03-02T11:05:55;4.10;;;3.80;;
42802;SDS011;28447;48.682;9.022;2024-03-02T11:08:22;4.10;;;3.80;;
42802;SDS011;28447;48.682;9.022;2024-03-02T11:10:57;3.80;;;3.60;;
42802;SDS011;28447;48.682;9.022;2024-03-02T11:13:33;3.60;;;3.40;;
42802;SDS011;28447;48.682;9.022;2024-03-02T11:16:02;4.10;;;3.80;;
42802;SDS011;28447;48.682;9.022;2024-03-02T11:18:29;3.80;;;3.60;;
42802;SDS011;28447;48.682;9.022;2024-03-02T11:20:56;3.90;;;3.70;;
42802;SDS011;28447;48.682;9.022;2024-03-02T11:23:31;5.53;;;3.67;;
42802;SDS011;28447;48.682;9.022;2024-03-02T11:26:20;3.37;;;3.10;;
42802;SDS011;28447;48.682;9.022;2024-03-02T11:28:46;4.13;;;3.73;;
42802;SDS011;28447;48.682;9.022;2024-03-02T11:31:12;4.10;;;3.80;;
42802;SDS011;28447;48.682;9.022;2024-03-02T11:33:38;4.20;;;3.80;;
42802;SDS011;28447;48.682;9.022;2024-03-02T11:36:07;3.67;;;3.47;;
42802;SDS011;28447;48.682;9.022;2024-03-02T11:38:34;3.57;;;3.37;;
42802;SDS011;28447;48.682;9.022;2024-03-02T11:41:00;3.80;;;3.50;;
42802;SDS011;28447;48.682;9.022;2024-03-02T11:43:27;3.47;;;3.27;;
42802;SDS011;28447;48.682;9.022;2024-03-02T11:45:57;3.63;;;3.43;;
42802;SDS011;28447;48.682;9.022;2024-03-02T11:48:24;3.90;;;3.70;;
42802;SDS011;28447;48.682;9.022;2024-03-02T11:50:50;3.87;;;3.57;;
42802;SDS011;28447;48.682;9.022;2024-03-02T11:53:16;3.83;;;3.60;;
42802;SDS011;28447;48.682;9.022;2024-03-02T11:55:43;3.70;;;3.50;;
42802;SDS011;28447;48.682;9.022;2024-03-02T11:58:13;3.70;;;3.50;;
42802;SDS011;28447;48.682;9.022;2024-03-02T12:00:40;3.80;;;3.60;;
42802;SDS011;28447;48.682;9.022;2024-03-02T12:03:06;4.30;;;4.00;;
42802;SDS011;28447;48.682;9.022;2024-03-02T12:05:32;3.90;;;3.70;;
42802;SDS011;28447;48.682;9.022;2024-03-02T12:10:25;4.37;;;4.13;;
42802;SDS011;28447;48.682;9.022;2024-03-02T12:12:57;4.20;;;4.00;;
42802;SDS011;28447;48.682;9.022;2024-03-02T12:15:25;4.15;;;3.88;;
42802;SDS011;28447;48.682;9.022;2024-03-02T12:17:54;4.82;;;4.03;;
42802;SDS011;28447;48.682;9.022;2024-03-02T12:20:21;4.60;;;4.30;;
42802;SDS011;28447;48.682;9.022;2024-03-02T12:22:49;4.60;;;4.30;;
42802;SDS011;28447;48.682;9.022;2024-03-02T12:25:15;4.45;;;4.15;;
42802;SDS011;28447;48.682;9.022;2024-03-02T12:27:42;4.78;;;4.47;;
42802;SDS011;28447;48.682;9.022;2024-03-02T12:30:08;4.60;;;4.38;;
42802;SDS011;28447;48.682;9.022;2024-03-02T12:32:36;4.70;;;4.40;;
42802;SDS011;28447;48.682;9.022;2024-03-02T12:35:04;5.05;;;4.80;;
42802;SDS011;28447;48.682;9.022;2024-03-02T12:37:30;4.90;;;4.60;;
42802;SDS011;28447;48.682;9.022;2024-03-02T12:39:56;6.00;;;5.60;;
42802;SDS011;28447;48.682;9.022;2024-03-02T12:42:25;5.40;;;5.10;;
42802;SDS011;28447;48.682;9.022;2024-03-02T12:44:52;5.43;;;5.13;;
42802;SDS011;28447;48.682;9.022;2024-03-02T12:47:21;5.63;;;5.32;;
42802;SDS011;28447;48.682;9.022;2024-03-02T12:49:47;5.30;;;5.00;;
42802;SDS011;28447;48.682;9.022;2024-03-02T12:52:13;6.03;;;5.68;;
42802;SDS011;28447;48.682;9.022;2024-03-02T12:54:39;5.93;;;5.50;;
42802;SDS011;28447;48.682;9.022;2024-03-02T12:57:05;5.40;;;5.10;;
42802;SDS011;28447;48.682;9.022;2024-03-02T12:59:32;5.25;;;4.95;;
42802;SDS011;28447;48.682;9.022;2024-03-02T13:01:58;4.97;;;4.70;;
42802;SDS011;28447;48.682;9.022;2024-03-02T13:04:25;5.10;;;4.80;;
42802;SDS011;28447;48.682;9.022;2024-03-02T13:06:52;5.47;;;5.07;;
42802;SDS011;28447;48.682;9.022;2024-03-02T13:09:18;4.50;;;4.30;;
42802;SDS011;28447;48.682;9.022;2024-03-02T13:11:44;5.38;;;5.07;;
42802;SDS011;28447;48.682;9.022;2024-03-02T13:14:10;5.40;;;5.10;;
42802;SDS011;28447;48.682;9.022;2024-03-02T13:16:40;5.00;;;4.70;;
42802;SDS011;28447;48.682;9.022;2024-03-02T13:19:10;5.15;;;4.93;;
42802;SDS011;28447;48.682;9.022;2024-03-02T13:21:37;5.28;;;4.80;;
42802;SDS011;28447;48.682;9.022;2024-03-02T13:24:03;4.80;;;4.60;;
42802;SDS011;28447;48.682;9.022;2024-03-02T13:26:30;5.00;;;4.70;;
42802;SDS011;28447;48.682;9.022;2024-03-02T13:28:56;5.40;;;5.10;;
42802;SDS011;28447;48.682;9.022;2024-03-02T13:31:22;5.30;;;5.00;;
42802;SDS011;28447;48.682;9.022;2024-03-02T13:33:48;5.30;;;5.00;;
42802;SDS011;28447;48.682;9.022;2024-03-02T13:36:14;5.30;;;4.90;;
42802;SDS011;28447;48.682;9.022;2024-03-02T13:38:40;5.40;;;5.10;;
42802;SDS011;28447;48.682;9.022;2024-03-02T13:41:06;4.93;;;4.63;;
42802;SDS011;28447;48.682;9.022;2024-03-02T13:43:32;5.60;;;5.30;;
42802;SDS011;28447;48.682;9.022;2024-03-02T13:46:00;4.67;;;4.47;;
42802;SDS011;28447;48.682;9.022;2024-03-02T13:48:26;5.53;;;5.23;;
42802;SDS011;28447;48.682;9.022;2024-03-02T13:50:52;5.67;;;5.37;;
42802;SDS011;28447;48.682;9.022;2024-03-02T13:53:18;5.80;;;5.40;;
42802;SDS011;28447;48.682;9.022;2024-03-02T13:55:45;5.63;;;5.33;;
42802;SDS011;28447;48.682;9.022;2024-03-02T13:58:11;6.17;;;5.77;;
42802;SDS011;28447;48.682;9.022;2024-03-02T14:00:37;6.17;;;5.87;;
42802;SDS011;28447;48.682;9.022;2024-03-02T14:03:07;5.60;;;5.30;;
42802;SDS011;28447;48.682;9.022;2024-03-02T14:05:33;5.83;;;5.30;;
42802;SDS011;28447;48.682;9.022;2024-03-02T14:07:59;5.77;;;5.40;;
42802;SDS011;28447;48.682;9.022;2024-03-02T14:10:29;7.43;;;5.80;;
42802;SDS011;28447;48.682;9.022;2024-03-02T14:12:55;5.90;;;5.50;;
42802;SDS011;28447;48.682;9.022;2024-03-02T14:15:22;5.87;;;5.57;;
42802;SDS011;28447;48.682;9.022;2024-03-02T14:17:48;6.80;;;6.20;;
42802;SDS011;28447;48.682;9.022;2024-03-02T14:20:14;5.63;;;5.33;;
42802;SDS011;28447;48.682;9.022;2024-03-02T14:22:46;5.77;;;5.47;;
42802;SDS011;28447;48.682;9.022;2024-03-02T14:25:12;5.90;;;5.60;;
42802;SDS011;28447;48.682;9.022;2024-03-02T14:27:38;9.93;;;6.20;;
42802;SDS011;28447;48.682;9.022;2024-03-02T14:30:05;6.35;;;5.95;;
42802;SDS011;28447;48.682;9.022;2024-03-02T14:32:33;6.43;;;5.33;;
42802;SDS011;28447;48.682;9.022;2024-03-02T14:34:59;6.20;;;5.80;;
42802;SDS011;28447;48.682;9.022;2024-03-02T14:37:25;5.30;;;5.00;;
42802;SDS011;28447;48.682;9.022;2024-03-02T14:39:51;5.82;;;5.43;;
42802;SDS011;28447;48.682;9.022;2024-03-02T14:42:17;6.82;;;6.32;;
42802;SDS011;28447;48.682;9.022;2024-03-02T14:44:43;6.00;;;5.70;;
42802;SDS011;28447;48.682;9.022;2024-03-02T14:47:09;5.50;;;5.20;;
42802;SDS011;28447;48.682;9.022;2024-03-02T14:49:35;5.60;;;5.30;;
42802;SDS011;28447;48.682;9.022;2024-03-02T14:52:05;5.45;;;5.13;;
42802;SDS011;28447;48.682;9.022;2024-03-02T14:54:31;5.80;;;5.50;;
42802;SDS011;28447;48.682;9.022;2024-03-02T14:56:57;6.45;;;5.40;;
42802;SDS011;28447;48.682;9.022;2024-03-02T14:59:23;6.05;;;5.65;;
42802;SDS011;28447;48.682;9.022;2024-03-02T15:01:49;6.40;;;6.00;;
42802;SDS011;28447;48.682;9.022;2024-03-02T15:04:15;6.10;;;5.80;;
42802;SDS011;28447;48.682;9.022;2024-03-02T15:06:41;6.40;;;6.10;;
42802;SDS011;28447;48.682;9.022;2024-03-02T15:09:09;6.40;;;6.00;;
42802;SDS011;28447;48.682;9.022;2024-03-02T15:11:37;6.90;;;6.40;;
42802;SDS011;28447;48.682;9.022;2024-03-02T15:14:03;6.60;;;6.20;;
42802;SDS011;28447;48.682;9.022;2024-03-02T15:16:29;6.68;;;6.18;;
42802;SDS011;28447;48.682;9.022;2024-03-02T15:18:55;6.63;;;6.25;;
42802;SDS011;28447;48.682;9.022;2024-03-02T15:21:21;6.60;;;6.20;;
42802;SDS011;28447;48.682;9.022;2024-03-02T15:23:47;6.80;;;6.30;;
42802;SDS011;28447;48.682;9.022;2024-03-02T15:26:13;6.00;;;5.70;;
42802;SDS011;28447;48.682;9.022;2024-03-02T15:28:39;6.33;;;5.97;;
42802;SDS011;28447;48.682;9.022;2024-03-02T15:31:05;6.60;;;6.20;;
42802;SDS011;28447;48.682;9.022;2024-03-02T15:33:31;7.50;;;7.10;;
42802;SDS011;28447;48.682;9.022;2024-03-02T15:35:58;7.70;;;7.30;;
42802;SDS011;28447;48.682;9.022;2024-03-02T15:38:26;6.70;;;6.30;;
42802;SDS011;28447;48.682;9.022;2024-03-02T15:40:52;6.80;;;6.30;;
42802;SDS011;28447;48.682;9.022;2024-03-02T15:43:18;6.20;;;5.80;;
42802;SDS011;28447;48.682;9.022;2024-03-02T15:45:44;5.30;;;5.00;;
42802;SDS011;28447;48.682;9.022;2024-03-02T15:48:10;5.87;;;5.43;;
42802;SDS011;28447;48.682;9.022;2024-03-02T15:50:36;6.90;;;6.30;;
42802;SDS011;28447;48.682;9.022;2024-03-02T15:53:02;5.70;;;5.40;;
42802;SDS011;28447;48.682;9.022;2024-03-02T15:55:31;5.00;;;4.70;;
42802;SDS011;28447;48.682;9.022;2024-03-02T15:57:57;6.00;;;5.60;;
42802;SDS011;28447;48.682;9.022;2024-03-02T16:00:23;5.83;;;5.43;;
42802;SDS011;28447;48.682;9.022;2024-03-02T16:02:49;5.23;;;4.93;;
42802;SDS011;28447;48.682;9.022;2024-03-02T16:05:15;5.20;;;4.90;;
42802;SDS011;28447;48.682;9.022;2024-03-02T16:07:42;5.73;;;5.33;;
42802;SDS011;28447;48.682;9.022;2024-03-02T16:10:08;5.33;;;4.93;;
42802;SDS011;28447;48.682;9.022;2024-03-02T16:12:34;5.53;;;5.13;;
42802;SDS011;28447;48.682;9.022;2024-03-02T16:15:00;4.90;;;4.50;;
42802;SDS011;28447;48.682;9.022;2024-03-02T16:17:26;5.40;;;5.00;;
42802;SDS011;28447;48.682;9.022;2024-03-02T16:19:52;5.00;;;4.67;;
42802;SDS011;28447;48.682;9.022;2024-03-02T16:22:18;5.23;;;4.73;;
42802;SDS011;28447;48.682;9.022;2024-03-02T16:24:44;5.43;;;4.93;;
42802;SDS011;28447;48.682;9.022;2024-03-02T16:27:10;5.07;;;4.77;;
42802;SDS011;28447;48.682;9.022;2024-03-02T16:29:36;5.50;;;5.00;;
42802;SDS011;28447;48.682;9.022;2024-03-02T16:32:03;4.67;;;4.27;;
42802;SDS011;28447;48.682;9.022;2024-03-02T16:34:29;4.73;;;4.43;;
42802;SDS011;28447;48.682;9.022;2024-03-02T16:36:55;5.30;;;5.00;;
42802;SDS011;28447;48.682;9.022;2024-03-02T16:39:21;4.30;;;4.00;;
42802;SDS011;28447;48.682;9.022;2024-03-02T16:41:48;5.00;;;4.50;;
42802;SDS011;28447;48.682;9.022;2024-03-02T16:44:14;4.70;;;4.30;;
42802;SDS011;28447;48.682;9.022;2024-03-02T16:46:40;4.50;;;4.20;;
42802;SDS011;28447;48.682;9.022;2024-03-02T16:49:06;4.67;;;4.17;;
42802;SDS011;28447;48.682;9.022;2024-03-02T16:51:39;4.37;;;3.97;;
42802;SDS011;28447;48.682;9.022;2024-03-02T16:54:05;4.10;;;3.80;;
42802;SDS011;28447;48.682;9.022;2024-03-02T16:56:43;5.00;;;4.60;;
42802;SDS011;28447;48.682;9.022;2024-03-02T16:59:09;4.90;;;4.50;;
42802;SDS011;28447;48.682;9.022;2024-03-02T17:01:36;4.20;;;3.90;;
42802;SDS011;28447;48.682;9.022;2024-03-02T17:04:02;7.67;;;4.47;;
42802;SDS011;28447;48.682;9.022;2024-03-02T17:06:30;4.13;;;3.83;;
42802;SDS011;28447;48.682;9.022;2024-03-02T17:08:56;5.57;;;3.40;;
42802;SDS011;28447;48.682;9.022;2024-03-02T17:11:22;3.83;;;3.43;;
42802;SDS011;28447;48.682;9.022;2024-03-02T17:13:48;7.20;;;4.73;;
42802;SDS011;28447;48.682;9.022;2024-03-02T17:16:17;4.27;;;3.50;;
42802;SDS011;28447;48.682;9.022;2024-03-02T17:18:43;3.90;;;3.60;;
42802;SDS011;28447;48.682;9.022;2024-03-02T17:21:09;4.33;;;3.93;;
42802;SDS011;28447;48.682;9.022;2024-03-02T17:23:35;4.80;;;4.30;;
42802;SDS011;28447;48.682;9.022;2024-03-02T17:26:01;4.13;;;3.73;;
42802;SDS011;28447;48.682;9.022;2024-03-02T17:28:27;4.50;;;3.70;;
42802;SDS011;28447;48.682;9.022;2024-03-02T17:30:54;4.50;;;3.60;;
42802;SDS011;28447;48.682;9.022;2024-03-02T17:33:20;4.10;;;3.70;;
42802;SDS011;28447;48.682;9.022;2024-03-02T17:35:46;5.97;;;4.63;;
42802;SDS011;28447;48.682;9.022;2024-03-02T17:38:14;5.70;;;5.03;;
42802;SDS011;28447;48.682;9.022;2024-03-02T17:40:40;13.70;;;9.40;;
42802;SDS011;28447;48.682;9.022;2024-03-02T17:43:06;11.90;;;8.30;;
42802;SDS011;28447;48.682;9.022;2024-03-02T17:45:32;7.30;;;5.73;;
42802;SDS011;28447;48.682;9.022;2024-03-02T17:47:58;10.97;;;8.20;;
42802;SDS011;28447;48.682;9.022;2024-03-02T17:50:24;8.97;;;7.30;;
42802;SDS011;28447;48.682;9.022;2024-03-02T17:52:50;17.33;;;14.07;;
42802;SDS011;28447;48.682;9.022;2024-03-02T17:55:16;11.70;;;9.33;;
42802;SDS011;28447;48.682;9.022;2024-03-02T17:57:42;7.00;;;5.77;;
42802;SDS011;28447;48.682;9.022;2024-03-02T18:00:08;7.73;;;6.30;;
42802;SDS011;28447;48.682;9.022;2024-03-02T18:02:39;6.40;;;5.50;;
42802;SDS011;28447;48.682;9.022;2024-03-02T18:05:05;8.93;;;5.17;;
42802;SDS011;28447;48.682;9.022;2024-03-02T18:07:31;6.50;;;4.83;;
42802;SDS011;28447;48.682;9.022;2024-03-02T18:09:59;5.03;;;4.53;;
42802;SDS011;28447;48.682;9.022;2024-03-02T18:12:26;7.97;;;5.80;;
42802;SDS011;28447;48.682;9.022;2024-03-02T18:14:52;6.00;;;5.13;;
42802;SDS011;28447;48.682;9.022;2024-03-02T18:17:18;8.13;;;5.80;;
42802;SDS011;28447;48.682;9.022;2024-03-02T18:19:45;7.90;;;6.17;;
42802;SDS011;28447;48.682;9.022;2024-03-02T18:22:11;12.10;;;7.33;;
42802;SDS011;28447;48.682;9.022;2024-03-02T18:24:37;11.63;;;8.23;;
42802;SDS011;28447;48.682;9.022;2024-03-02T18:27:03;10.53;;;8.50;;
42802;SDS011;28447;48.682;9.022;2024-03-02T18:29:29;11.00;;;8.40;;
42802;SDS011;28447;48.682;9.022;2024-03-02T18:31:55;12.83;;;9.10;;
42802;SDS011;28447;48.682;9.022;2024-03-02T18:34:22;19.80;;;11.97;;
42802;SDS011;28447;48.682;9.022;2024-03-02T18:36:48;15.37;;;11.60;;
42802;SDS011;28447;48.682;9.022;2024-03-02T18:39:14;20.37;;;13.83;;
42802;SDS011;28447;48.682;9.022;2024-03-02T18:41:40;19.73;;;13.57;;
42802;SDS011;28447;48.682;9.022;2024-03-02T18:44:06;22.53;;;13.47;;
42802;SDS011;28447;48.682;9.022;2024-03-02T18:46:33;21.30;;;15.70;;
42802;SDS011;28447;48.682;9.022;2024-03-02T18:48:59;22.07;;;14.30;;
42802;SDS011;28447;48.682;9.022;2024-03-02T18:51:25;19.53;;;13.90;;
42802;SDS011;28447;48.682;9.022;2024-03-02T18:53:51;20.60;;;13.90;;
42802;SDS011;28447;48.682;9.022;2024-03-02T18:56:17;22.50;;;14.60;;
42802;SDS011;28447;48.682;9.022;2024-03-02T18:58:43;22.07;;;14.03;;
42802;SDS011;28447;48.682;9.022;2024-03-02T19:01:09;19.30;;;14.00;;
42802;SDS011;28447;48.682;9.022;2024-03-02T19:03:36;28.43;;;14.53;;
42802;SDS011;28447;48.682;9.022;2024-03-02T19:06:02;21.73;;;14.77;;
42802;SDS011;28447;48.682;9.022;2024-03-02T19:08:28;25.70;;;15.13;;
42802;SDS011;28447;48.682;9.022;2024-03-02T19:10:54;23.47;;;15.47;;
42802;SDS011;28447;48.682;9.022;2024-03-02T19:13:20;23.67;;;16.00;;
42802;SDS011;28447;48.682;9.022;2024-03-02T19:15:48;23.73;;;15.57;;
42802;SDS011;28447;48.682;9.022;2024-03-02T19:18:14;25.87;;;15.97;;
42802;SDS011;28447;48.682;9.022;2024-03-02T19:20:40;26.20;;;16.73;;
42802;SDS011;28447;48.682;9.022;2024-03-02T19:23:07;26.67;;;16.67;;
42802;SDS011;28447;48.682;9.022;2024-03-02T19:25:33;26.57;;;16.23;;
42802;SDS011;28447;48.682;9.022;2024-03-02T19:27:59;28.07;;;16.77;;
42802;SDS011;28447;48.682;9.022;2024-03-02T19:30:25;26.40;;;15.67;;
42802;SDS011;28447;48.682;9.022;2024-03-02T19:32:51;23.53;;;15.30;;
42802;SDS011;28447;48.682;9.022;2024-03-02T19:35:17;27.87;;;17.27;;
42802;SDS011;28447;48.682;9.022;2024-03-02T19:37:43;27.20;;;17.93;;
42802;SDS011;28447;48.682;9.022;2024-03-02T19:40:10;28.23;;;16.23;;
42802;SDS011;28447;48.682;9.022;2024-03-02T19:42:36;27.57;;;17.10;;